Xin Barag Youqi, China
Current Conditions -  °F | °C
As of 9:30 AM on Thursday 27 Nov 2014 (Local Time) from UIAA Reporting Station
Few Clouds Few Clouds  
Wind Chill: -9°   Ceiling: Unl
Heat Index: -9°   Visibility: 6mi
Dew Point: -17°   Wind: 0mph
Humidity: 71%   Direction: NA
Pressure: 29.97"   Gusts: NA
Location:  48.67°N, 116.82°E
Report Text: UIAA 270130Z 00000MPS 9999 FEW200 M23/M27 Q1015 NOSIG RMKQFE703 29CLRD70
Loading
Personal Weather Stations






























Interactive Weather Map New forecast layout! Learn more

10-Day Weather Forecast

Advertisements
Track Severe Weather on mobile